sensor_id;sensor_type;location;lat;lon;timestamp;P1;durP1;ratioP1;P2;durP2;ratioP2
11245;SDS011;59870;50.106;8.580;2024-02-26T06:36:07;6.43;;;5.87;;
11245;SDS011;59870;50.106;8.580;2024-02-26T06:38:36;6.60;;;6.20;;
11245;SDS011;59870;50.106;8.580;2024-02-26T06:41:07;6.70;;;6.20;;
11245;SDS011;59870;50.106;8.580;2024-02-26T06:43:39;7.20;;;6.63;;
11245;SDS011;59870;50.106;8.580;2024-02-26T06:46:09;7.53;;;6.67;;
11245;SDS011;59870;50.106;8.580;2024-02-26T06:48:39;6.80;;;6.20;;
11245;SDS011;59870;50.106;8.580;2024-02-26T06:51:09;6.90;;;6.43;;
11245;SDS011;59870;50.106;8.580;2024-02-26T06:53:38;7.70;;;7.20;;
11245;SDS011;59870;50.106;8.580;2024-02-26T06:56:07;7.77;;;7.23;;
11245;SDS011;59870;50.106;8.580;2024-02-26T06:58:35;7.73;;;6.93;;
11245;SDS011;59870;50.106;8.580;2024-02-26T07:01:04;8.20;;;7.60;;
11245;SDS011;59870;50.106;8.580;2024-02-26T07:03:35;8.70;;;8.10;;
11245;SDS011;59870;50.106;8.580;2024-02-26T07:06:04;7.77;;;7.27;;
11245;SDS011;59870;50.106;8.580;2024-02-26T07:08:34;7.97;;;7.37;;
11245;SDS011;59870;50.106;8.580;2024-02-26T07:11:03;8.40;;;7.87;;
11245;SDS011;59870;50.106;8.580;2024-02-26T07:13:36;7.77;;;7.23;;
11245;SDS011;59870;50.106;8.580;2024-02-26T07:16:05;8.33;;;7.83;;
11245;SDS011;59870;50.106;8.580;2024-02-26T07:18:34;8.50;;;7.90;;
11245;SDS011;59870;50.106;8.580;2024-02-26T07:21:03;7.90;;;7.50;;
11245;SDS011;59870;50.106;8.580;2024-02-26T07:23:32;8.67;;;7.93;;
11245;SDS011;59870;50.106;8.580;2024-02-26T07:26:03;7.43;;;7.03;;
11245;SDS011;59870;50.106;8.580;2024-02-26T07:28:32;7.97;;;7.37;;
11245;SDS011;59870;50.106;8.580;2024-02-26T07:31:01;9.00;;;7.50;;
11245;SDS011;59870;50.106;8.580;2024-02-26T07:33:30;8.77;;;8.07;;
11245;SDS011;59870;50.106;8.580;2024-02-26T07:35:59;7.70;;;7.30;;
11245;SDS011;59870;50.106;8.580;2024-02-26T07:38:28;7.27;;;6.77;;
11245;SDS011;59870;50.106;8.580;2024-02-26T07:41:10;8.13;;;7.43;;
11245;SDS011;59870;50.106;8.580;2024-02-26T07:43:40;8.33;;;7.73;;
11245;SDS011;59870;50.106;8.580;2024-02-26T07:46:11;8.10;;;7.43;;
11245;SDS011;59870;50.106;8.580;2024-02-26T07:48:40;7.70;;;7.27;;
11245;SDS011;59870;50.106;8.580;2024-02-26T07:51:11;8.13;;;7.43;;
11245;SDS011;59870;50.106;8.580;2024-02-26T07:53:42;7.60;;;6.90;;
11245;SDS011;59870;50.106;8.580;2024-02-26T07:56:12;7.40;;;6.80;;
11245;SDS011;59870;50.106;8.580;2024-02-26T07:58:40;7.20;;;6.70;;
11245;SDS011;59870;50.106;8.580;2024-02-26T08:01:09;6.77;;;6.37;;
11245;SDS011;59870;50.106;8.580;2024-02-26T08:03:41;7.00;;;6.50;;
11245;SDS011;59870;50.106;8.580;2024-02-26T08:06:09;6.90;;;6.50;;
11245;SDS011;59870;50.106;8.580;2024-02-26T08:08:38;7.90;;;7.20;;
11245;SDS011;59870;50.106;8.580;2024-02-26T08:11:07;7.17;;;6.67;;
11245;SDS011;59870;50.106;8.580;2024-02-26T08:13:37;9.20;;;8.50;;
11245;SDS011;59870;50.106;8.580;2024-02-26T08:16:05;8.00;;;7.40;;
11245;SDS011;59870;50.106;8.580;2024-02-26T08:18:34;7.37;;;6.87;;
11245;SDS011;59870;50.106;8.580;2024-02-26T08:21:03;6.80;;;6.27;;
11245;SDS011;59870;50.106;8.580;2024-02-26T08:23:32;10.70;;;9.80;;
11245;SDS011;59870;50.106;8.580;2024-02-26T08:26:01;10.83;;;9.97;;
11245;SDS011;59870;50.106;8.580;2024-02-26T08:28:31;10.80;;;9.83;;
11245;SDS011;59870;50.106;8.580;2024-02-26T08:31:01;7.07;;;6.57;;
11245;SDS011;59870;50.106;8.580;2024-02-26T08:33:30;7.17;;;6.67;;
11245;SDS011;59870;50.106;8.580;2024-02-26T08:35:59;8.37;;;7.70;;
11245;SDS011;59870;50.106;8.580;2024-02-26T08:38:32;7.03;;;6.53;;
11245;SDS011;59870;50.106;8.580;2024-02-26T08:41:01;7.40;;;6.90;;
11245;SDS011;59870;50.106;8.580;2024-02-26T08:43:30;7.20;;;6.63;;
11245;SDS011;59870;50.106;8.580;2024-02-26T08:45:59;7.57;;;7.00;;
11245;SDS011;59870;50.106;8.580;2024-02-26T08:48:28;8.27;;;7.47;;
11245;SDS011;59870;50.106;8.580;2024-02-26T08:50:57;8.47;;;7.87;;
11245;SDS011;59870;50.106;8.580;2024-02-26T08:53:27;7.90;;;7.40;;
11245;SDS011;59870;50.106;8.580;2024-02-26T08:56:09;7.67;;;7.17;;
11245;SDS011;59870;50.106;8.580;2024-02-26T08:58:39;7.57;;;7.07;;
11245;SDS011;59870;50.106;8.580;2024-02-26T09:01:07;8.20;;;7.60;;
11245;SDS011;59870;50.106;8.580;2024-02-26T09:03:36;10.23;;;8.10;;
11245;SDS011;59870;50.106;8.580;2024-02-26T09:06:05;8.07;;;7.37;;
11245;SDS011;59870;50.106;8.580;2024-02-26T09:08:34;8.30;;;7.80;;
11245;SDS011;59870;50.106;8.580;2024-02-26T09:11:03;7.43;;;6.87;;
11245;SDS011;59870;50.106;8.580;2024-02-26T09:13:32;8.60;;;7.93;;
11245;SDS011;59870;50.106;8.580;2024-02-26T09:16:01;7.93;;;7.43;;
11245;SDS011;59870;50.106;8.580;2024-02-26T09:18:29;8.93;;;8.33;;
11245;SDS011;59870;50.106;8.580;2024-02-26T09:21:00;8.57;;;7.87;;
11245;SDS011;59870;50.106;8.580;2024-02-26T09:23:32;8.00;;;7.40;;
11245;SDS011;59870;50.106;8.580;2024-02-26T09:26:02;8.80;;;8.17;;
11245;SDS011;59870;50.106;8.580;2024-02-26T09:28:32;8.80;;;8.20;;
11245;SDS011;59870;50.106;8.580;2024-02-26T09:31:04;8.10;;;7.70;;
11245;SDS011;59870;50.106;8.580;2024-02-26T09:33:33;9.17;;;8.47;;
11245;SDS011;59870;50.106;8.580;2024-02-26T09:36:04;8.60;;;8.10;;
11245;SDS011;59870;50.106;8.580;2024-02-26T09:38:33;9.33;;;8.53;;
11245;SDS011;59870;50.106;8.580;2024-02-26T09:41:22;8.67;;;7.97;;
11245;SDS011;59870;50.106;8.580;2024-02-26T09:43:51;8.93;;;8.43;;
11245;SDS011;59870;50.106;8.580;2024-02-26T09:46:23;8.37;;;7.87;;
11245;SDS011;59870;50.106;8.580;2024-02-26T09:48:53;8.80;;;7.90;;
11245;SDS011;59870;50.106;8.580;2024-02-26T09:51:24;8.97;;;8.23;;
11245;SDS011;59870;50.106;8.580;2024-02-26T09:53:53;9.47;;;8.67;;
11245;SDS011;59870;50.106;8.580;2024-02-26T09:56:24;9.77;;;9.00;;
11245;SDS011;59870;50.106;8.580;2024-02-26T09:58:53;10.23;;;9.37;;
11245;SDS011;59870;50.106;8.580;2024-02-26T10:01:23;9.67;;;8.97;;
11245;SDS011;59870;50.106;8.580;2024-02-26T10:03:54;9.70;;;8.90;;
11245;SDS011;59870;50.106;8.580;2024-02-26T10:06:26;9.07;;;8.47;;
11245;SDS011;59870;50.106;8.580;2024-02-26T10:08:55;9.90;;;9.20;;
11245;SDS011;59870;50.106;8.580;2024-02-26T10:11:26;9.17;;;8.57;;
11245;SDS011;59870;50.106;8.580;2024-02-26T10:13:55;9.60;;;8.73;;
11245;SDS011;59870;50.106;8.580;2024-02-26T10:16:24;9.17;;;8.40;;
11245;SDS011;59870;50.106;8.580;2024-02-26T10:18:53;9.33;;;8.53;;
11245;SDS011;59870;50.106;8.580;2024-02-26T10:21:27;10.10;;;9.40;;
11245;SDS011;59870;50.106;8.580;2024-02-26T10:23:56;9.33;;;8.73;;
11245;SDS011;59870;50.106;8.580;2024-02-26T10:26:25;9.40;;;8.77;;
11245;SDS011;59870;50.106;8.580;2024-02-26T10:28:54;8.83;;;8.40;;
11245;SDS011;59870;50.106;8.580;2024-02-26T10:31:27;9.00;;;8.40;;
11245;SDS011;59870;50.106;8.580;2024-02-26T10:33:57;8.93;;;8.37;;
11245;SDS011;59870;50.106;8.580;2024-02-26T10:36:33;9.23;;;8.47;;
11245;SDS011;59870;50.106;8.580;2024-02-26T10:39:17;10.27;;;9.37;;
11245;SDS011;59870;50.106;8.580;2024-02-26T10:41:46;9.17;;;8.57;;
11245;SDS011;59870;50.106;8.580;2024-02-26T10:44:15;8.73;;;8.23;;
11245;SDS011;59870;50.106;8.580;2024-02-26T10:46:46;8.73;;;8.10;;
11245;SDS011;59870;50.106;8.580;2024-02-26T10:49:16;8.93;;;8.33;;
11245;SDS011;59870;50.106;8.580;2024-02-26T10:51:52;8.97;;;8.27;;
11245;SDS011;59870;50.106;8.580;2024-02-26T10:54:24;9.10;;;8.50;;
11245;SDS011;59870;50.106;8.580;2024-02-26T10:56:56;9.43;;;8.77;;
11245;SDS011;59870;50.106;8.580;2024-02-26T10:59:26;9.37;;;8.43;;
11245;SDS011;59870;50.106;8.580;2024-02-26T11:01:55;8.27;;;7.83;;
11245;SDS011;59870;50.106;8.580;2024-02-26T11:04:25;8.67;;;7.97;;
11245;SDS011;59870;50.106;8.580;2024-02-26T11:06:58;8.70;;;8.10;;
11245;SDS011;59870;50.106;8.580;2024-02-26T11:09:28;8.30;;;7.80;;
11245;SDS011;59870;50.106;8.580;2024-02-26T11:11:57;8.93;;;8.23;;
11245;SDS011;59870;50.106;8.580;2024-02-26T11:14:27;9.00;;;8.27;;
11245;SDS011;59870;50.106;8.580;2024-02-26T11:16:59;9.20;;;8.50;;
11245;SDS011;59870;50.106;8.580;2024-02-26T11:19:28;8.57;;;8.07;;
11245;SDS011;59870;50.106;8.580;2024-02-26T11:22:03;9.60;;;9.00;;
11245;SDS011;59870;50.106;8.580;2024-02-26T11:24:47;9.03;;;8.43;;
11245;SDS011;59870;50.106;8.580;2024-02-26T11:27:16;8.27;;;7.70;;
11245;SDS011;59870;50.106;8.580;2024-02-26T11:29:47;8.93;;;8.40;;
11245;SDS011;59870;50.106;8.580;2024-02-26T11:32:19;10.20;;;9.50;;
11245;SDS011;59870;50.106;8.580;2024-02-26T11:34:49;9.53;;;8.97;;
11245;SDS011;59870;50.106;8.580;2024-02-26T11:37:19;9.20;;;8.60;;
11245;SDS011;59870;50.106;8.580;2024-02-26T11:39:48;9.07;;;8.20;;
11245;SDS011;59870;50.106;8.580;2024-02-26T11:42:22;8.80;;;8.20;;
11245;SDS011;59870;50.106;8.580;2024-02-26T11:44:52;9.10;;;8.60;;
11245;SDS011;59870;50.106;8.580;2024-02-26T11:47:23;8.80;;;8.23;;
11245;SDS011;59870;50.106;8.580;2024-02-26T11:49:52;7.80;;;7.33;;
11245;SDS011;59870;50.106;8.580;2024-02-26T11:52:25;8.80;;;8.20;;
11245;SDS011;59870;50.106;8.580;2024-02-26T12:24:38;8.87;;;8.30;;
11245;SDS011;59870;50.106;8.580;2024-02-26T12:30:27;8.47;;;7.87;;
11245;SDS011;59870;50.106;8.580;2024-02-26T12:33:00;9.60;;;8.87;;
11245;SDS011;59870;50.106;8.580;2024-02-26T12:35:30;8.10;;;7.70;;
11245;SDS011;59870;50.106;8.580;2024-02-26T12:37:59;9.43;;;8.83;;
11245;SDS011;59870;50.106;8.580;2024-02-26T12:40:32;9.80;;;9.00;;
11245;SDS011;59870;50.106;8.580;2024-02-26T12:43:00;8.97;;;8.37;;
11245;SDS011;59870;50.106;8.580;2024-02-26T12:45:29;9.03;;;8.53;;
11245;SDS011;59870;50.106;8.580;2024-02-26T12:47:59;8.50;;;8.00;;
11245;SDS011;59870;50.106;8.580;2024-02-26T12:50:28;8.67;;;8.07;;
11245;SDS011;59870;50.106;8.580;2024-02-26T12:53:01;9.83;;;9.23;;
11245;SDS011;59870;50.106;8.580;2024-02-26T12:55:31;9.27;;;8.67;;
11245;SDS011;59870;50.106;8.580;2024-02-26T12:58:03;8.27;;;7.77;;
11245;SDS011;59870;50.106;8.580;2024-02-26T13:00:32;10.27;;;9.40;;
11245;SDS011;59870;50.106;8.580;2024-02-26T13:06:00;8.43;;;8.00;;
11245;SDS011;59870;50.106;8.580;2024-02-26T13:08:29;8.73;;;8.13;;
11245;SDS011;59870;50.106;8.580;2024-02-26T13:11:01;9.00;;;8.47;;
11245;SDS011;59870;50.106;8.580;2024-02-26T13:13:31;8.63;;;8.13;;
11245;SDS011;59870;50.106;8.580;2024-02-26T13:16:03;8.60;;;8.10;;
11245;SDS011;59870;50.106;8.580;2024-02-26T13:18:35;8.30;;;7.80;;
11245;SDS011;59870;50.106;8.580;2024-02-26T13:21:07;8.20;;;7.37;;
11245;SDS011;59870;50.106;8.580;2024-02-26T13:23:37;8.17;;;7.57;;
11245;SDS011;59870;50.106;8.580;2024-02-26T13:26:11;8.70;;;8.20;;
11245;SDS011;59870;50.106;8.580;2024-02-26T13:28:42;8.40;;;7.93;;
11245;SDS011;59870;50.106;8.580;2024-02-26T13:31:13;8.40;;;7.90;;
11245;SDS011;59870;50.106;8.580;2024-02-26T13:33:42;9.30;;;8.70;;
11245;SDS011;59870;50.106;8.580;2024-02-26T13:36:17;8.13;;;7.63;;
11245;SDS011;59870;50.106;8.580;2024-02-26T13:38:51;8.20;;;7.40;;
11245;SDS011;59870;50.106;8.580;2024-02-26T13:41:24;8.57;;;8.00;;
11245;SDS011;59870;50.106;8.580;2024-02-26T13:43:55;8.33;;;7.77;;
11245;SDS011;59870;50.106;8.580;2024-02-26T13:46:25;8.23;;;7.63;;
11245;SDS011;59870;50.106;8.580;2024-02-26T13:48:54;8.03;;;7.53;;
11245;SDS011;59870;50.106;8.580;2024-02-26T13:51:24;8.60;;;8.10;;
11245;SDS011;59870;50.106;8.580;2024-02-26T13:53:53;8.60;;;8.00;;
11245;SDS011;59870;50.106;8.580;2024-02-26T13:56:23;8.43;;;7.83;;
11245;SDS011;59870;50.106;8.580;2024-02-26T13:58:53;8.10;;;7.60;;
11245;SDS011;59870;50.106;8.580;2024-02-26T14:01:22;8.23;;;7.73;;
11245;SDS011;59870;50.106;8.580;2024-02-26T14:03:54;8.27;;;7.67;;
11245;SDS011;59870;50.106;8.580;2024-02-26T14:06:25;8.40;;;7.80;;
11245;SDS011;59870;50.106;8.580;2024-02-26T14:08:54;7.77;;;7.37;;
11245;SDS011;59870;50.106;8.580;2024-02-26T14:11:24;8.10;;;7.60;;
11245;SDS011;59870;50.106;8.580;2024-02-26T14:13:54;7.63;;;7.23;;
11245;SDS011;59870;50.106;8.580;2024-02-26T14:16:24;7.63;;;7.07;;
11245;SDS011;59870;50.106;8.580;2024-02-26T14:18:57;7.47;;;7.07;;
11245;SDS011;59870;50.106;8.580;2024-02-26T14:21:26;7.13;;;6.70;;
11245;SDS011;59870;50.106;8.580;2024-02-26T14:23:56;7.17;;;6.77;;
11245;SDS011;59870;50.106;8.580;2024-02-26T14:26:26;6.87;;;6.53;;
11245;SDS011;59870;50.106;8.580;2024-02-26T14:28:55;7.97;;;7.47;;
11245;SDS011;59870;50.106;8.580;2024-02-26T14:34:18;8.57;;;7.93;;
11245;SDS011;59870;50.106;8.580;2024-02-26T14:36:47;7.37;;;6.97;;
11245;SDS011;59870;50.106;8.580;2024-02-26T14:39:18;7.40;;;7.00;;
11245;SDS011;59870;50.106;8.580;2024-02-26T14:41:49;7.87;;;7.37;;
11245;SDS011;59870;50.106;8.580;2024-02-26T14:44:22;7.17;;;6.80;;
11245;SDS011;59870;50.106;8.580;2024-02-26T14:46:52;6.93;;;6.53;;
11245;SDS011;59870;50.106;8.580;2024-02-26T14:49:21;7.10;;;6.70;;
11245;SDS011;59870;50.106;8.580;2024-02-26T14:51:49;7.87;;;7.27;;
11245;SDS011;59870;50.106;8.580;2024-02-26T14:54:19;15.43;;;13.87;;
11245;SDS011;59870;50.106;8.580;2024-02-26T14:56:55;7.40;;;6.90;;
11245;SDS011;59870;50.106;8.580;2024-02-26T14:59:23;7.30;;;6.90;;
11245;SDS011;59870;50.106;8.580;2024-02-26T15:01:52;7.20;;;6.80;;
11245;SDS011;59870;50.106;8.580;2024-02-26T15:04:22;7.73;;;7.30;;
11245;SDS011;59870;50.106;8.580;2024-02-26T15:06:50;7.40;;;6.83;;
11245;SDS011;59870;50.106;8.580;2024-02-26T15:09:20;7.63;;;7.13;;
11245;SDS011;59870;50.106;8.580;2024-02-26T15:11:49;7.37;;;6.77;;
11245;SDS011;59870;50.106;8.580;2024-02-26T15:14:19;6.20;;;5.90;;
11245;SDS011;59870;50.106;8.580;2024-02-26T15:16:49;6.67;;;6.27;;
11245;SDS011;59870;50.106;8.580;2024-02-26T15:19:20;7.20;;;6.70;;
11245;SDS011;59870;50.106;8.580;2024-02-26T15:21:49;7.57;;;7.10;;
11245;SDS011;59870;50.106;8.580;2024-02-26T15:24:18;6.97;;;6.57;;
11245;SDS011;59870;50.106;8.580;2024-02-26T15:26:46;7.60;;;6.90;;
11245;SDS011;59870;50.106;8.580;2024-02-26T15:29:15;7.37;;;6.87;;
11245;SDS011;59870;50.106;8.580;2024-02-26T15:31:45;6.60;;;6.23;;
11245;SDS011;59870;50.106;8.580;2024-02-26T15:34:14;7.17;;;6.73;;
11245;SDS011;59870;50.106;8.580;2024-02-26T15:36:44;6.53;;;6.13;;
11245;SDS011;59870;50.106;8.580;2024-02-26T15:39:14;6.40;;;6.00;;
11245;SDS011;59870;50.106;8.580;2024-02-26T15:41:43;6.40;;;6.10;;
11245;SDS011;59870;50.106;8.580;2024-02-26T15:44:13;6.23;;;5.83;;
11245;SDS011;59870;50.106;8.580;2024-02-26T15:46:42;7.23;;;6.83;;
11245;SDS011;59870;50.106;8.580;2024-02-26T15:49:12;6.53;;;6.13;;
11245;SDS011;59870;50.106;8.580;2024-02-26T15:51:43;6.50;;;6.10;;
11245;SDS011;59870;50.106;8.580;2024-02-26T15:54:12;6.77;;;6.37;;
11245;SDS011;59870;50.106;8.580;2024-02-26T15:56:41;6.83;;;6.33;;
11245;SDS011;59870;50.106;8.580;2024-02-26T15:59:10;6.60;;;6.30;;
11245;SDS011;59870;50.106;8.580;2024-02-26T16:01:39;6.97;;;6.47;;
11245;SDS011;59870;50.106;8.580;2024-02-26T16:04:08;6.87;;;6.37;;
11245;SDS011;59870;50.106;8.580;2024-02-26T16:06:39;7.17;;;6.73;;
11245;SDS011;59870;50.106;8.580;2024-02-26T16:09:11;7.03;;;6.53;;
11245;SDS011;59870;50.106;8.580;2024-02-26T16:11:41;8.67;;;7.97;;
11245;SDS011;59870;50.106;8.580;2024-02-26T16:14:12;7.07;;;6.33;;
11245;SDS011;59870;50.106;8.580;2024-02-26T16:16:50;6.27;;;5.87;;
11245;SDS011;59870;50.106;8.580;2024-02-26T16:19:21;5.73;;;5.43;;
11245;SDS011;59870;50.106;8.580;2024-02-26T16:21:53;6.33;;;5.93;;
11245;SDS011;59870;50.106;8.580;2024-02-26T16:24:24;5.87;;;5.57;;
11245;SDS011;59870;50.106;8.580;2024-02-26T16:29:46;6.23;;;5.93;;
11245;SDS011;59870;50.106;8.580;2024-02-26T16:47:56;6.10;;;5.80;;
11245;SDS011;59870;50.106;8.580;2024-02-26T16:50:25;6.47;;;6.07;;
11245;SDS011;59870;50.106;8.580;2024-02-26T16:52:54;6.03;;;5.43;;
11245;SDS011;59870;50.106;8.580;2024-02-26T16:55:22;7.00;;;6.60;;
11245;SDS011;59870;50.106;8.580;2024-02-26T16:57:54;7.13;;;6.53;;
11245;SDS011;59870;50.106;8.580;2024-02-26T17:00:25;6.37;;;5.97;;
11245;SDS011;59870;50.106;8.580;2024-02-26T17:02:53;6.50;;;6.10;;
11245;SDS011;59870;50.106;8.580;2024-02-26T17:05:25;6.57;;;6.13;;
11245;SDS011;59870;50.106;8.580;2024-02-26T17:07:54;7.17;;;6.77;;
11245;SDS011;59870;50.106;8.580;2024-02-26T17:10:23;6.77;;;6.17;;
11245;SDS011;59870;50.106;8.580;2024-02-26T17:12:52;6.50;;;6.10;;
11245;SDS011;59870;50.106;8.580;2024-02-26T17:15:21;6.80;;;6.30;;
11245;SDS011;59870;50.106;8.580;2024-02-26T17:17:49;7.27;;;6.30;;
11245;SDS011;59870;50.106;8.580;2024-02-26T17:20:19;6.30;;;5.93;;
11245;SDS011;59870;50.106;8.580;2024-02-26T17:22:49;6.23;;;5.87;;
11245;SDS011;59870;50.106;8.580;2024-02-26T17:25:17;6.27;;;5.80;;
11245;SDS011;59870;50.106;8.580;2024-02-26T17:27:46;6.23;;;5.83;;
11245;SDS011;59870;50.106;8.580;2024-02-26T17:30:15;6.43;;;6.03;;
11245;SDS011;59870;50.106;8.580;2024-02-26T17:32:44;6.27;;;5.87;;
11245;SDS011;59870;50.106;8.580;2024-02-26T17:35:16;6.30;;;6.00;;
11245;SDS011;59870;50.106;8.580;2024-02-26T17:37:45;7.70;;;7.20;;
11245;SDS011;59870;50.106;8.580;2024-02-26T17:40:16;8.40;;;7.70;;
11245;SDS011;59870;50.106;8.580;2024-02-26T17:42:45;5.40;;;5.10;;
11245;SDS011;59870;50.106;8.580;2024-02-26T17:45:14;6.00;;;5.63;;
11245;SDS011;59870;50.106;8.580;2024-02-26T17:47:45;5.97;;;5.57;;
11245;SDS011;59870;50.106;8.580;2024-02-26T17:50:14;6.00;;;5.57;;
11245;SDS011;59870;50.106;8.580;2024-02-26T17:52:43;5.50;;;5.20;;
11245;SDS011;59870;50.106;8.580;2024-02-26T17:55:13;6.23;;;5.70;;
11245;SDS011;59870;50.106;8.580;2024-02-26T17:57:44;5.70;;;5.40;;
11245;SDS011;59870;50.106;8.580;2024-02-26T18:00:13;5.50;;;5.20;;
11245;SDS011;59870;50.106;8.580;2024-02-26T18:02:42;5.50;;;5.20;;
11245;SDS011;59870;50.106;8.580;2024-02-26T18:05:11;5.60;;;5.30;;
11245;SDS011;59870;50.106;8.580;2024-02-26T18:07:41;5.77;;;5.37;;
11245;SDS011;59870;50.106;8.580;2024-02-26T18:10:10;5.90;;;5.50;;
11245;SDS011;59870;50.106;8.580;2024-02-26T18:12:43;6.27;;;5.77;;
11245;SDS011;59870;50.106;8.580;2024-02-26T18:15:14;6.17;;;5.70;;
11245;SDS011;59870;50.106;8.580;2024-02-26T18:17:43;5.63;;;5.33;;
11245;SDS011;59870;50.106;8.580;2024-02-26T18:20:14;6.60;;;6.10;;
11245;SDS011;59870;50.106;8.580;2024-02-26T18:22:44;6.80;;;6.30;;
11245;SDS011;59870;50.106;8.580;2024-02-26T18:25:13;6.40;;;5.90;;
11245;SDS011;59870;50.106;8.580;2024-02-26T18:27:42;6.23;;;5.73;;
11245;SDS011;59870;50.106;8.580;2024-02-26T18:30:12;6.30;;;5.90;;
11245;SDS011;59870;50.106;8.580;2024-02-26T18:32:41;5.97;;;5.67;;
11245;SDS011;59870;50.106;8.580;2024-02-26T18:35:10;6.20;;;5.87;;
11245;SDS011;59870;50.106;8.580;2024-02-26T18:37:39;6.53;;;6.07;;
11245;SDS011;59870;50.106;8.580;2024-02-26T18:40:08;6.47;;;6.10;;
11245;SDS011;59870;50.106;8.580;2024-02-26T18:42:38;6.50;;;6.00;;
11245;SDS011;59870;50.106;8.580;2024-02-26T18:45:07;6.17;;;5.80;;
11245;SDS011;59870;50.106;8.580;2024-02-26T18:47:38;5.80;;;5.47;;
11245;SDS011;59870;50.106;8.580;2024-02-26T18:50:08;5.63;;;5.23;;
11245;SDS011;59870;50.106;8.580;2024-02-26T18:52:37;6.07;;;5.57;;
11245;SDS011;59870;50.106;8.580;2024-02-26T18:55:08;6.83;;;6.10;;
11245;SDS011;59870;50.106;8.580;2024-02-26T18:57:36;6.67;;;6.27;;
11245;SDS011;59870;50.106;8.580;2024-02-26T19:03:01;7.30;;;6.70;;
11245;SDS011;59870;50.106;8.580;2024-02-26T19:05:32;6.97;;;6.47;;
11245;SDS011;59870;50.106;8.580;2024-02-26T19:08:01;8.00;;;7.30;;
11245;SDS011;59870;50.106;8.580;2024-02-26T19:10:31;7.67;;;7.07;;
11245;SDS011;59870;50.106;8.580;2024-02-26T19:13:00;10.77;;;7.50;;
11245;SDS011;59870;50.106;8.580;2024-02-26T19:15:31;8.07;;;7.37;;
11245;SDS011;59870;50.106;8.580;2024-02-26T19:18:02;7.90;;;7.30;;
11245;SDS011;59870;50.106;8.580;2024-02-26T19:20:33;8.77;;;7.97;;
11245;SDS011;59870;50.106;8.580;2024-02-26T19:23:04;8.53;;;7.83;;
11245;SDS011;59870;50.106;8.580;2024-02-26T19:25:33;8.83;;;8.23;;
11245;SDS011;59870;50.106;8.580;2024-02-26T19:28:06;9.03;;;8.23;;
11245;SDS011;59870;50.106;8.580;2024-02-26T19:30:35;8.90;;;8.17;;
11245;SDS011;59870;50.106;8.580;2024-02-26T19:33:07;8.57;;;7.83;;
11245;SDS011;59870;50.106;8.580;2024-02-26T19:35:38;8.50;;;7.90;;
11245;SDS011;59870;50.106;8.580;2024-02-26T19:38:07;8.73;;;8.13;;
11245;SDS011;59870;50.106;8.580;2024-02-26T19:40:36;9.43;;;8.63;;
11245;SDS011;59870;50.106;8.580;2024-02-26T19:43:05;8.73;;;8.10;;
11245;SDS011;59870;50.106;8.580;2024-02-26T19:45:34;8.60;;;8.00;;
11245;SDS011;59870;50.106;8.580;2024-02-26T19:48:03;9.00;;;8.30;;
11245;SDS011;59870;50.106;8.580;2024-02-26T19:50:34;8.83;;;8.23;;
11245;SDS011;59870;50.106;8.580;2024-02-26T19:53:02;8.00;;;7.40;;
11245;SDS011;59870;50.106;8.580;2024-02-26T19:55:32;8.57;;;7.97;;
11245;SDS011;59870;50.106;8.580;2024-02-26T19:58:01;8.43;;;7.83;;
11245;SDS011;59870;50.106;8.580;2024-02-26T20:00:30;9.43;;;8.77;;
11245;SDS011;59870;50.106;8.580;2024-02-26T20:02:59;9.13;;;8.50;;
11245;SDS011;59870;50.106;8.580;2024-02-26T20:05:30;9.63;;;8.90;;
11245;SDS011;59870;50.106;8.580;2024-02-26T20:08:00;9.40;;;8.57;;
11245;SDS011;59870;50.106;8.580;2024-02-26T20:10:28;9.70;;;8.90;;
11245;SDS011;59870;50.106;8.580;2024-02-26T20:12:57;9.93;;;8.93;;
11245;SDS011;59870;50.106;8.580;2024-02-26T20:15:27;10.23;;;9.53;;
11245;SDS011;59870;50.106;8.580;2024-02-26T20:17:56;9.83;;;9.03;;
11245;SDS011;59870;50.106;8.580;2024-02-26T20:20:25;10.53;;;9.63;;
11245;SDS011;59870;50.106;8.580;2024-02-26T20:22:56;9.67;;;8.80;;
11245;SDS011;59870;50.106;8.580;2024-02-26T20:25:26;9.73;;;8.93;;
11245;SDS011;59870;50.106;8.580;2024-02-26T20:27:55;10.30;;;9.60;;
11245;SDS011;59870;50.106;8.580;2024-02-26T20:30:24;10.33;;;9.63;;
11245;SDS011;59870;50.106;8.580;2024-02-26T20:32:54;10.23;;;9.53;;
11245;SDS011;59870;50.106;8.580;2024-02-26T20:35:23;10.20;;;9.50;;
11245;SDS011;59870;50.106;8.580;2024-02-26T20:37:52;10.53;;;9.43;;
11245;SDS011;59870;50.106;8.580;2024-02-26T20:40:20;9.77;;;9.10;;
11245;SDS011;59870;50.106;8.580;2024-02-26T20:42:50;10.60;;;9.63;;
11245;SDS011;59870;50.106;8.580;2024-02-26T20:45:21;9.83;;;9.17;;
11245;SDS011;59870;50.106;8.580;2024-02-26T20:47:55;10.03;;;9.33;;
11245;SDS011;59870;50.106;8.580;2024-02-26T20:50:24;9.60;;;8.90;;
11245;SDS011;59870;50.106;8.580;2024-02-26T20:52:53;10.70;;;9.70;;
11245;SDS011;59870;50.106;8.580;2024-02-26T20:55:22;11.03;;;10.30;;
11245;SDS011;59870;50.106;8.580;2024-02-26T20:57:53;11.13;;;10.27;;
11245;SDS011;59870;50.106;8.580;2024-02-26T21:00:23;11.63;;;10.83;;
11245;SDS011;59870;50.106;8.580;2024-02-26T21:02:52;12.10;;;11.10;;
11245;SDS011;59870;50.106;8.580;2024-02-26T21:05:20;11.63;;;10.83;;
11245;SDS011;59870;50.106;8.580;2024-02-26T21:07:50;13.37;;;11.97;;
11245;SDS011;59870;50.106;8.580;2024-02-26T21:10:18;12.67;;;11.67;;
11245;SDS011;59870;50.106;8.580;2024-02-26T21:12:50;14.00;;;12.90;;
11245;SDS011;59870;50.106;8.580;2024-02-26T21:15:21;13.53;;;12.53;;
11245;SDS011;59870;50.106;8.580;2024-02-26T21:17:50;12.77;;;11.77;;
11245;SDS011;59870;50.106;8.580;2024-02-26T21:20:19;14.07;;;12.93;;
11245;SDS011;59870;50.106;8.580;2024-02-26T21:22:50;14.00;;;12.70;;
11245;SDS011;59870;50.106;8.580;2024-02-26T21:25:19;14.30;;;13.13;;
11245;SDS011;59870;50.106;8.580;2024-02-26T21:27:48;13.90;;;12.90;;
11245;SDS011;59870;50.106;8.580;2024-02-26T21:30:18;14.70;;;13.50;;
11245;SDS011;59870;50.106;8.580;2024-02-26T21:32:50;16.23;;;14.83;;
11245;SDS011;59870;50.106;8.580;2024-02-26T21:35:22;15.47;;;14.07;;
11245;SDS011;59870;50.106;8.580;2024-02-26T21:37:52;15.73;;;14.33;;
11245;SDS011;59870;50.106;8.580;2024-02-26T21:40:21;16.20;;;14.80;;
11245;SDS011;59870;50.106;8.580;2024-02-26T21:42:50;16.37;;;15.17;;
11245;SDS011;59870;50.106;8.580;2024-02-26T21:45:20;16.67;;;15.17;;
11245;SDS011;59870;50.106;8.580;2024-02-26T21:47:49;15.93;;;14.63;;
11245;SDS011;59870;50.106;8.580;2024-02-26T21:50:18;17.47;;;15.87;;
11245;SDS011;59870;50.106;8.580;2024-02-26T21:52:47;17.27;;;15.77;;
11245;SDS011;59870;50.106;8.580;2024-02-26T21:55:16;17.47;;;16.10;;
11245;SDS011;59870;50.106;8.580;2024-02-26T21:57:46;17.53;;;15.97;;
11245;SDS011;59870;50.106;8.580;2024-02-26T22:00:16;16.37;;;14.67;;
11245;SDS011;59870;50.106;8.580;2024-02-26T22:02:47;17.87;;;16.10;;
11245;SDS011;59870;50.106;8.580;2024-02-26T22:05:15;18.33;;;16.40;;
11245;SDS011;59870;50.106;8.580;2024-02-26T22:07:43;16.90;;;15.50;;
11245;SDS011;59870;50.106;8.580;2024-02-26T22:10:12;18.10;;;16.30;;
11245;SDS011;59870;50.106;8.580;2024-02-26T22:12:42;17.10;;;15.57;;
11245;SDS011;59870;50.106;8.580;2024-02-26T22:15:11;18.37;;;16.57;;
11245;SDS011;59870;50.106;8.580;2024-02-26T22:17:40;19.53;;;15.40;;
11245;SDS011;59870;50.106;8.580;2024-02-26T22:20:10;17.40;;;15.80;;
11245;SDS011;59870;50.106;8.580;2024-02-26T22:22:39;17.87;;;16.37;;
11245;SDS011;59870;50.106;8.580;2024-02-26T22:25:08;19.03;;;17.13;;
11245;SDS011;59870;50.106;8.580;2024-02-26T22:27:37;19.80;;;17.83;;
11245;SDS011;59870;50.106;8.580;2024-02-26T22:30:07;21.27;;;19.23;;
11245;SDS011;59870;50.106;8.580;2024-02-26T22:32:38;19.77;;;17.93;;
11245;SDS011;59870;50.106;8.580;2024-02-26T22:35:07;18.93;;;17.13;;